Terminal Aerodrome Forecast
Issued by NWS Lake Charles, LA

Home | Current Version | Previous Version | Text Only | Print | Product List | Glossary On
Versions: 1 2 3 4 5 6 7 8 9 10 11 12 13 14
479
FTUS44 KLCH 211720
TAFLFT
TAF
KLFT 211720Z 2118/2218 13008KT P6SM SCT050
     FM220800 16008KT P6SM VCTS OVC015CB
      TEMPO 2209/2213 VRB10G20KT 2SM TSRA OVC007CB
     FM221400 27009KT P6SM -SHRA OVC015=

USA.gov is the U.S. government's official web portal to all federal, state and local government web resources and services.